createdAt,value
2022-09-24T00:00:09.297Z,93.17
2022-09-24T00:01:16.199Z,93.37
2022-09-24T00:02:18.662Z,93.88
2022-09-24T00:03:22.800Z,93.72
2022-09-24T00:04:26.227Z,93.93
2022-09-24T00:05:29.277Z,93.69
2022-09-24T00:06:34.737Z,94.23
2022-09-24T00:07:37.846Z,93.89
2022-09-24T00:08:40.137Z,94.03
2022-09-24T00:09:43.462Z,93.77
2022-09-24T00:10:48.953Z,94.54
2022-09-24T00:11:52.420Z,94.14
2022-09-24T00:12:54.587Z,94.27
2022-09-24T00:13:59.897Z,94.13
2022-09-24T00:15:01.979Z,93.83
2022-09-24T00:16:08.138Z,93.84
2022-09-24T00:17:10.374Z,93.65
2022-09-24T00:18:14.609Z,93.62
2022-09-24T00:19:16.750Z,93.96
2022-09-24T00:20:22.700Z,93.69
2022-09-24T00:21:27.240Z,93.69
2022-09-24T00:22:30.290Z,93.49
2022-09-24T00:23:32.534Z,93.51
2022-09-24T00:24:53.168Z,93.58
2022-09-24T00:26:13.962Z,93.72
2022-09-24T00:27:17.024Z,93.60
2022-09-24T00:28:19.104Z,93.50
2022-09-24T00:29:25.048Z,93.61
2022-09-24T00:30:27.147Z,93.64
2022-09-24T00:31:30.351Z,94.10
2022-09-24T00:32:32.442Z,93.49
2022-09-24T00:33:36.225Z,94.15
2022-09-24T00:34:39.316Z,94.02
2022-09-24T00:35:41.655Z,94.14
2022-09-24T00:36:46.847Z,94.02
2022-09-24T00:37:49.077Z,93.96
2022-09-24T00:38:53.875Z,94.21
2022-09-24T00:39:56.623Z,94.27
2022-09-24T00:40:59.863Z,93.92
2022-09-24T00:42:01.964Z,94.42
2022-09-24T00:43:24.249Z,94.41
2022-09-24T00:44:54.673Z,94.40
2022-09-24T00:46:05.223Z,94.28
2022-09-24T00:47:13.926Z,94.36
2022-09-24T00:48:17.210Z,94.71
2022-09-24T00:49:20.590Z,94.53
2022-09-24T00:50:27.210Z,94.91
2022-09-24T00:51:32.964Z,94.99
2022-09-24T00:52:38.442Z,94.76
2022-09-24T00:53:43.119Z,95.13
2022-09-24T00:54:45.747Z,94.84
2022-09-24T00:55:52.918Z,95.26
2022-09-24T00:56:57.454Z,95.19
2022-09-24T00:58:04.300Z,95.34
2022-09-24T00:59:11.588Z,95.61
2022-09-24T01:00:16.695Z,95.56
2022-09-24T01:01:21.215Z,95.05
2022-09-24T01:02:25.048Z,95.69
2022-09-24T01:03:28.957Z,95.46
2022-09-24T01:04:32.023Z,95.50
2022-09-24T01:05:35.824Z,95.65
2022-09-24T01:06:38.906Z,95.31
2022-09-24T01:07:41.159Z,95.16
2022-09-24T01:08:44.586Z,95.20
2022-09-24T01:09:46.758Z,95.46
2022-09-24T01:11:05.933Z,95.10
2022-09-24T01:12:18.870Z,95.48
2022-09-24T01:13:34.213Z,95.34
2022-09-24T01:14:52.987Z,95.41
2022-09-24T01:16:05.186Z,95.18
2022-09-24T01:17:16.161Z,95.43
2022-09-24T01:18:28.213Z,95.02
2022-09-24T01:19:50.191Z,95.22
2022-09-24T01:21:25.412Z,95.09
2022-09-24T01:22:40.030Z,95.07
2022-09-24T01:24:00.866Z,94.89
2022-09-24T01:25:13.440Z,94.93
2022-09-24T01:26:32.950Z,95.25
2022-09-24T01:27:56.524Z,95.32
2022-09-24T01:29:20.480Z,95.26
2022-09-24T01:30:25.354Z,95.12
2022-09-24T01:31:33.964Z,95.47
2022-09-24T01:32:42.134Z,95.32
2022-09-24T01:33:46.581Z,95.44
2022-09-24T01:34:58.378Z,95.40
2022-09-24T01:36:08.274Z,95.49
2022-09-24T01:37:14.782Z,95.48
2022-09-24T01:38:20.064Z,95.29
2022-09-24T01:39:24.132Z,95.45
2022-09-24T01:40:29.045Z,95.59
2022-09-24T01:41:33.654Z,95.68
2022-09-24T01:42:38.371Z,95.48
2022-09-24T01:43:41.530Z,95.83
2022-09-24T01:44:45.072Z,95.69
2022-09-24T01:45:48.841Z,95.75
2022-09-24T01:46:51.143Z,95.54
2022-09-24T01:47:54.252Z,95.76
2022-09-24T01:48:56.336Z,96.11
2022-09-24T01:49:59.549Z,96.06
2022-09-24T01:51:08.555Z,95.98
2022-09-24T01:52:16.525Z,95.69
2022-09-24T01:53:21.586Z,95.81
2022-09-24T01:54:30.381Z,95.87
2022-09-24T01:55:38.378Z,96.11
2022-09-24T01:56:46.223Z,96.10
2022-09-24T01:57:53.341Z,95.92
2022-09-24T01:59:00.838Z,96.26
2022-09-24T02:00:09.823Z,96.03
2022-09-24T02:01:19.249Z,96.03
2022-09-24T02:02:28.844Z,96.33
2022-09-24T02:03:36.412Z,96.15
2022-09-24T02:04:43.668Z,96.00
2022-09-24T02:05:50.527Z,96.05
2022-09-24T02:07:02.003Z,96.43
2022-09-24T02:08:09.120Z,96.23
2022-09-24T02:09:34.118Z,96.10
2022-09-24T02:10:46.491Z,96.07
2022-09-24T02:11:53.351Z,96.56
2022-09-24T02:12:59.364Z,96.54
2022-09-24T02:14:07.891Z,96.49
2022-09-24T02:15:17.481Z,96.45
2022-09-24T02:16:25.606Z,96.37
2022-09-24T02:17:32.698Z,95.85
2022-09-24T02:18:40.336Z,96.01
2022-09-24T02:19:42.895Z,96.17
2022-09-24T02:20:46.735Z,95.82
2022-09-24T02:21:51.294Z,95.58
2022-09-24T02:22:57.743Z,96.05
2022-09-24T02:24:03.353Z,95.55
2022-09-24T02:25:10.681Z,95.91
2022-09-24T02:26:13.095Z,95.93
2022-09-24T02:27:16.739Z,95.83
2022-09-24T02:28:19.583Z,95.95
2022-09-24T02:29:23.215Z,96.16
2022-09-24T02:30:26.966Z,95.59
2022-09-24T02:31:32.360Z,95.62
2022-09-24T02:32:36.622Z,96.01
2022-09-24T02:34:00.638Z,95.63
2022-09-24T02:35:07.286Z,95.62
2022-09-24T02:36:09.684Z,95.62
2022-09-24T02:37:15.139Z,95.95
2022-09-24T02:38:18.395Z,96.00
2022-09-24T02:39:22.034Z,95.44
2022-09-24T02:40:24.341Z,95.93
2022-09-24T02:41:29.662Z,95.53
2022-09-24T02:42:32.084Z,95.96
2022-09-24T02:43:36.514Z,96.13
2022-09-24T02:44:38.672Z,95.72
2022-09-24T02:45:43.226Z,96.18
2022-09-24T02:46:45.962Z,96.29
2022-09-24T02:47:49.129Z,96.29
2022-09-24T02:48:51.249Z,96.02
2022-09-24T02:49:54.353Z,95.98
2022-09-24T02:50:56.462Z,96.38
2022-09-24T02:51:59.673Z,96.13
2022-09-24T02:53:02.483Z,96.34
2022-09-24T02:54:06.340Z,96.22
2022-09-24T02:55:08.643Z,96.38
2022-09-24T02:56:11.686Z,96.25
2022-09-24T02:57:13.841Z,96.33
2022-09-24T02:58:16.909Z,96.58
2022-09-24T02:59:19.356Z,96.78
2022-09-24T03:00:22.434Z,96.67
2022-09-24T03:01:26.082Z,96.79
2022-09-24T03:02:29.322Z,96.58
2022-09-24T03:03:31.716Z,96.77
2022-09-24T03:04:35.314Z,96.61
2022-09-24T03:05:37.416Z,96.27
2022-09-24T03:06:40.511Z,96.62
2022-09-24T03:07:43.792Z,96.42
2022-09-24T03:08:47.076Z,96.51
2022-09-24T03:09:49.178Z,96.31
2022-09-24T03:10:52.640Z,96.35
2022-09-24T03:11:54.747Z,96.26
2022-09-24T03:12:58.238Z,96.18
2022-09-24T03:14:00.569Z,96.19
2022-09-24T03:15:03.798Z,96.62
2022-09-24T03:16:07.545Z,96.27
2022-09-24T03:17:12.034Z,96.20
2022-09-24T03:18:15.050Z,96.53
2022-09-24T03:19:18.114Z,96.74
2022-09-24T03:20:20.241Z,96.72
2022-09-24T03:21:24.013Z,96.45
2022-09-24T03:22:26.097Z,96.72
2022-09-24T03:23:29.230Z,96.88
2022-09-24T03:24:31.281Z,96.90
2022-09-24T03:25:34.457Z,96.82
2022-09-24T03:26:37.303Z,96.63
2022-09-24T03:27:40.353Z,96.65
2022-09-24T03:28:42.419Z,96.70
2022-09-24T03:30:02.948Z,96.68
2022-09-24T03:31:06.681Z,96.68
2022-09-24T03:32:10.239Z,96.47
2022-09-24T03:33:12.315Z,96.46
2022-09-24T03:34:15.612Z,96.88
2022-09-24T03:35:17.788Z,96.74
2022-09-24T03:36:22.792Z,96.76
2022-09-24T03:37:24.882Z,96.33
2022-09-24T03:38:29.261Z,96.84
2022-09-24T03:39:31.587Z,96.59
2022-09-24T03:40:34.743Z,96.71
2022-09-24T03:41:37.894Z,96.41
2022-09-24T03:42:40.005Z,96.85
2022-09-24T03:43:43.150Z,96.43
2022-09-24T03:44:45.289Z,96.77
2022-09-24T03:45:49.193Z,96.84
2022-09-24T03:46:51.507Z,96.57
2022-09-24T03:47:55.995Z,96.97
2022-09-24T03:49:00.489Z,97.10
2022-09-24T03:50:03.705Z,97.12
2022-09-24T03:51:07.006Z,96.95
2022-09-24T03:52:10.064Z,97.06
2022-09-24T03:53:12.830Z,97.09
2022-09-24T03:54:16.520Z,97.11
2022-09-24T03:55:18.656Z,96.92
2022-09-24T03:56:21.905Z,96.97
2022-09-24T03:57:24.042Z,97.13
2022-09-24T03:58:27.475Z,97.16
2022-09-24T03:59:29.531Z,97.08
2022-09-24T04:00:34.460Z,96.98
2022-09-24T04:01:39.728Z,97.08
2022-09-24T04:02:43.057Z,97.22
2022-09-24T04:03:46.886Z,97.40
2022-09-24T04:04:50.563Z,97.52
2022-09-24T04:05:52.711Z,97.45
2022-09-24T04:06:55.797Z,97.58
2022-09-24T04:07:59.019Z,97.23
2022-09-24T04:09:02.107Z,97.41
2022-09-24T04:10:04.665Z,97.66
2022-09-24T04:11:07.803Z,97.85
2022-09-24T04:12:09.956Z,97.36
2022-09-24T04:13:13.283Z,97.73
2022-09-24T04:14:15.361Z,97.88
2022-09-24T04:15:18.851Z,97.91
2022-09-24T04:16:20.990Z,97.94
2022-09-24T04:17:24.045Z,98.17
2022-09-24T04:18:26.105Z,97.83
2022-09-24T04:19:32.011Z,98.21
2022-09-24T04:20:35.701Z,98.37
2022-09-24T04:21:38.949Z,98.20
2022-09-24T04:22:41.088Z,98.24
2022-09-24T04:23:44.158Z,98.49
2022-09-24T04:24:46.256Z,98.36
2022-09-24T04:25:49.426Z,98.24
2022-09-24T04:26:51.528Z,98.45
2022-09-24T04:27:55.828Z,98.80
2022-09-24T04:28:59.311Z,98.75
2022-09-24T04:30:02.393Z,98.68
2022-09-24T04:31:04.829Z,98.77
2022-09-24T04:32:07.945Z,98.99
2022-09-24T04:33:10.061Z,99.02
2022-09-24T04:34:13.158Z,99.37
2022-09-24T04:35:16.682Z,99.50
2022-09-24T04:36:20.157Z,99.58
2022-09-24T04:37:22.215Z,99.81
2022-09-24T04:38:25.257Z,99.86
2022-09-24T04:39:27.890Z,99.87
2022-09-24T04:40:31.209Z,99.94
2022-09-24T04:41:35.076Z,100.00
2022-09-24T04:42:38.451Z,100.00
2022-09-24T04:43:40.518Z,100.00
2022-09-24T04:44:47.288Z,100.00
2022-09-24T04:45:50.340Z,100.00
2022-09-24T04:46:52.463Z,100.00
2022-09-24T04:47:57.978Z,100.00
2022-09-24T04:49:00.310Z,100.00
2022-09-24T04:50:04.128Z,100.00
2022-09-24T04:51:10.370Z,100.00
2022-09-24T04:52:14.948Z,100.00
2022-09-24T04:53:18.864Z,100.00
2022-09-24T04:54:20.910Z,100.00
2022-09-24T04:55:24.998Z,100.00
2022-09-24T04:56:27.045Z,100.00
2022-09-24T04:57:33.036Z,100.00
2022-09-24T04:58:35.212Z,100.00
2022-09-24T04:59:38.323Z,100.00
2022-09-24T05:00:43.320Z,100.00
2022-09-24T05:01:47.334Z,100.00
2022-09-24T05:02:58.192Z,100.00
2022-09-24T05:04:00.398Z,100.00
2022-09-24T05:05:03.562Z,100.00
2022-09-24T05:06:08.355Z,100.00
2022-09-24T05:07:11.074Z,100.00
2022-09-24T05:08:14.243Z,100.00
2022-09-24T05:09:16.710Z,100.00
2022-09-24T05:10:20.428Z,100.00
2022-09-24T05:11:22.502Z,100.00
2022-09-24T05:12:25.966Z,100.00
2022-09-24T05:13:28.337Z,100.00
2022-09-24T05:14:31.434Z,100.00
2022-09-24T05:15:33.513Z,100.00
2022-09-24T05:16:36.610Z,100.00
2022-09-24T05:17:39.431Z,100.00
2022-09-24T05:18:42.539Z,100.00
2022-09-24T05:19:44.761Z,100.00
2022-09-24T05:20:47.864Z,100.00
2022-09-24T05:21:51.286Z,100.00
2022-09-24T05:22:54.450Z,100.00
2022-09-24T05:23:56.546Z,100.00
2022-09-24T05:24:59.682Z,100.00
2022-09-24T05:26:20.123Z,100.00
2022-09-24T05:27:23.797Z,100.00
2022-09-24T05:28:27.167Z,100.00
2022-09-24T05:29:29.230Z,100.00
2022-09-24T05:30:32.266Z,100.00
2022-09-24T05:31:34.404Z,100.00
2022-09-24T05:32:37.579Z,100.00
2022-09-24T05:33:39.656Z,100.00
2022-09-24T05:34:44.350Z,100.00
2022-09-24T05:35:53.526Z,100.00
2022-09-24T05:36:58.278Z,100.00
2022-09-24T05:38:01.347Z,100.00
2022-09-24T05:39:04.134Z,100.00
2022-09-24T05:40:22.338Z,100.00
2022-09-24T05:41:25.503Z,100.00
2022-09-24T05:42:28.575Z,100.00
2022-09-24T05:43:31.833Z,100.00
2022-09-24T05:44:35.584Z,100.00
2022-09-24T05:45:37.695Z,100.00
2022-09-24T05:46:40.909Z,100.00
2022-09-24T05:47:43.145Z,100.00
2022-09-24T05:48:46.180Z,100.00
2022-09-24T05:49:48.231Z,100.00
2022-09-24T05:50:55.193Z,100.00
2022-09-24T05:51:59.071Z,100.00
2022-09-24T05:53:02.660Z,100.00
2022-09-24T05:54:04.946Z,100.00
2022-09-24T05:55:10.071Z,100.00
2022-09-24T05:56:13.420Z,100.00
2022-09-24T05:57:15.922Z,100.00
2022-09-24T05:58:19.235Z,100.00
2022-09-24T05:59:21.309Z,100.00
2022-09-24T06:00:24.436Z,100.00
2022-09-24T06:01:29.980Z,100.00
2022-09-24T06:02:32.315Z,100.00
2022-09-24T06:03:35.729Z,100.00
2022-09-24T06:04:37.811Z,100.00
2022-09-24T06:05:44.338Z,100.00
2022-09-24T06:06:46.358Z,100.00
2022-09-24T06:07:52.421Z,100.00
2022-09-24T06:08:55.157Z,100.00
2022-09-24T06:09:59.282Z,100.00
2022-09-24T06:11:05.347Z,100.00
2022-09-24T06:12:10.839Z,100.00
2022-09-24T06:13:14.209Z,100.00
2022-09-24T06:14:17.677Z,100.00
2022-09-24T06:15:20.783Z,100.00
2022-09-24T06:16:23.860Z,100.00
2022-09-24T06:17:26.167Z,100.00
2022-09-24T06:18:29.664Z,100.00
2022-09-24T06:19:31.829Z,100.00
2022-09-24T06:20:34.889Z,100.00
2022-09-24T06:21:37.959Z,100.00
2022-09-24T06:22:40.109Z,100.00
2022-09-24T06:23:46.052Z,100.00
2022-09-24T06:24:49.084Z,100.00
2022-09-24T06:25:51.230Z,100.00
2022-09-24T06:26:54.299Z,100.00
2022-09-24T06:28:00.291Z,100.00
2022-09-24T06:29:05.170Z,100.00
2022-09-24T06:30:08.906Z,100.00
2022-09-24T06:31:12.610Z,100.00
2022-09-24T06:32:14.831Z,100.00
2022-09-24T06:33:20.029Z,100.00
2022-09-24T06:34:22.072Z,100.00
2022-09-24T06:35:25.532Z,100.00
2022-09-24T06:36:28.587Z,100.00
2022-09-24T06:37:30.732Z,100.00
2022-09-24T06:38:33.961Z,100.00
2022-09-24T06:39:37.373Z,100.00
2022-09-24T06:40:43.216Z,100.00
2022-09-24T06:41:50.566Z,100.00
2022-09-24T06:42:54.718Z,100.00
2022-09-24T06:44:01.785Z,100.00
2022-09-24T06:45:04.814Z,100.00
2022-09-24T06:46:12.089Z,100.00
2022-09-24T06:47:17.937Z,100.00
2022-09-24T06:48:22.943Z,100.00
2022-09-24T06:49:26.329Z,100.00
2022-09-24T06:50:34.384Z,100.00
2022-09-24T06:51:36.533Z,100.00
2022-09-24T06:52:39.574Z,100.00
2022-09-24T06:53:41.650Z,100.00
2022-09-24T06:54:46.069Z,100.00
2022-09-24T06:55:48.949Z,100.00
2022-09-24T06:56:52.651Z,100.00
2022-09-24T06:58:02.216Z,100.00
2022-09-24T06:59:06.653Z,100.00
2022-09-24T07:00:12.257Z,100.00
2022-09-24T07:01:15.410Z,100.00
2022-09-24T07:02:17.623Z,100.00
2022-09-24T07:03:21.577Z,100.00
2022-09-24T07:04:24.782Z,100.00
2022-09-24T07:05:26.903Z,100.00
2022-09-24T07:06:50.556Z,100.00
2022-09-24T07:07:52.702Z,100.00
2022-09-24T07:08:56.682Z,100.00
2022-09-24T07:10:02.038Z,100.00
2022-09-24T07:11:05.196Z,100.00
2022-09-24T07:12:08.863Z,100.00
2022-09-24T07:13:13.113Z,100.00
2022-09-24T07:14:15.531Z,100.00
2022-09-24T07:15:18.716Z,100.00
2022-09-24T07:16:21.923Z,100.00
2022-09-24T07:17:24.221Z,100.00
2022-09-24T07:18:27.506Z,100.00
2022-09-24T07:19:30.001Z,100.00
2022-09-24T07:20:37.059Z,100.00
2022-09-24T07:21:41.841Z,100.00
2022-09-24T07:22:45.166Z,100.00
2022-09-24T07:23:47.806Z,100.00
2022-09-24T07:24:50.917Z,100.00
2022-09-24T07:25:57.498Z,100.00
2022-09-24T07:27:00.906Z,100.00
2022-09-24T07:28:07.538Z,100.00
2022-09-24T07:29:11.116Z,100.00
2022-09-24T07:30:13.408Z,100.00
2022-09-24T07:31:17.819Z,100.00
2022-09-24T07:32:28.977Z,100.00
2022-09-24T07:33:35.008Z,100.00
2022-09-24T07:34:37.633Z,100.00
2022-09-24T07:35:41.540Z,100.00
2022-09-24T07:36:44.084Z,100.00
2022-09-24T07:37:47.292Z,100.00
2022-09-24T07:38:49.387Z,100.00
2022-09-24T07:39:52.509Z,100.00
2022-09-24T07:40:59.157Z,100.00
2022-09-24T07:42:02.653Z,100.00
2022-09-24T07:43:11.827Z,100.00
2022-09-24T07:44:15.158Z,100.00
2022-09-24T07:45:18.358Z,100.00
2022-09-24T07:46:21.344Z,100.00
2022-09-24T07:47:24.547Z,100.00
2022-09-24T07:48:27.646Z,100.00
2022-09-24T07:49:32.242Z,100.00
2022-09-24T07:50:39.789Z,100.00
2022-09-24T07:51:42.127Z,100.00
2022-09-24T07:52:45.231Z,100.00
2022-09-24T07:53:47.332Z,100.00
2022-09-24T07:54:52.318Z,100.00
2022-09-24T07:56:00.526Z,100.00
2022-09-24T07:57:03.709Z,100.00
2022-09-24T07:58:05.804Z,100.00
2022-09-24T07:59:11.251Z,100.00
2022-09-24T08:00:14.664Z,100.00
2022-09-24T08:01:18.003Z,100.00
2022-09-24T08:02:20.437Z,100.00
2022-09-24T08:03:23.531Z,100.00
2022-09-24T08:04:25.696Z,100.00
2022-09-24T08:05:29.028Z,100.00
2022-09-24T08:06:38.281Z,100.00
2022-09-24T08:07:43.084Z,100.00
2022-09-24T08:08:45.319Z,100.00
2022-09-24T08:09:48.372Z,100.00
2022-09-24T08:10:50.705Z,100.00
2022-09-24T08:11:55.442Z,100.00
2022-09-24T08:13:01.600Z,100.00
2022-09-24T08:14:04.703Z,100.00
2022-09-24T08:15:07.814Z,100.00
2022-09-24T08:16:10.928Z,100.00
2022-09-24T08:17:13.600Z,100.00
2022-09-24T08:18:16.675Z,100.00
2022-09-24T08:19:20.240Z,100.00
2022-09-24T08:20:24.712Z,100.00
2022-09-24T08:21:27.998Z,100.00
2022-09-24T08:22:31.451Z,100.00
2022-09-24T08:23:35.138Z,100.00
2022-09-24T08:24:37.324Z,100.00
2022-09-24T08:25:40.437Z,100.00
2022-09-24T08:26:42.511Z,100.00
2022-09-24T08:27:47.091Z,100.00
2022-09-24T08:28:51.444Z,100.00
2022-09-24T08:29:53.493Z,100.00
2022-09-24T08:30:59.223Z,100.00
2022-09-24T08:32:01.675Z,100.00
2022-09-24T08:33:06.620Z,100.00
2022-09-24T08:34:08.784Z,100.00
2022-09-24T08:35:11.916Z,100.00
2022-09-24T08:36:14.344Z,100.00
2022-09-24T08:37:18.096Z,100.00
2022-09-24T08:38:21.038Z,100.00
2022-09-24T08:39:24.170Z,100.00
2022-09-24T08:40:30.261Z,100.00
2022-09-24T08:41:49.398Z,100.00
2022-09-24T08:42:58.951Z,100.00
2022-09-24T08:44:06.394Z,100.00
2022-09-24T08:45:29.649Z,100.00
2022-09-24T08:46:55.873Z,100.00
2022-09-24T08:48:13.818Z,100.00
2022-09-24T08:49:22.318Z,100.00
2022-09-24T08:50:27.487Z,100.00
2022-09-24T08:51:45.726Z,100.00
2022-09-24T08:53:02.883Z,100.00
2022-09-24T08:54:09.331Z,100.00
2022-09-24T08:55:16.510Z,100.00
2022-09-24T08:56:25.925Z,100.00
2022-09-24T08:57:28.860Z,100.00
2022-09-24T08:58:44.489Z,100.00
2022-09-24T08:59:52.182Z,100.00
2022-09-24T09:00:58.982Z,100.00
2022-09-24T09:02:20.660Z,100.00
2022-09-24T09:03:31.061Z,100.00
2022-09-24T09:04:44.366Z,100.00
2022-09-24T09:05:54.585Z,100.00
2022-09-24T09:07:09.598Z,100.00
2022-09-24T09:08:44.995Z,100.00
2022-09-24T09:09:45.878Z,100.00
2022-09-24T09:10:53.220Z,100.00
2022-09-24T09:12:01.995Z,100.00
2022-09-24T09:13:11.282Z,100.00
2022-09-24T09:14:18.742Z,100.00
2022-09-24T09:15:26.133Z,100.00
2022-09-24T09:16:35.267Z,100.00
2022-09-24T09:17:45.369Z,100.00
2022-09-24T09:18:51.989Z,100.00
2022-09-24T09:19:56.681Z,100.00
2022-09-24T09:21:12.223Z,100.00
2022-09-24T09:22:18.505Z,100.00
2022-09-24T09:23:22.578Z,100.00
2022-09-24T09:24:34.521Z,100.00
2022-09-24T09:25:37.635Z,100.00
2022-09-24T09:26:39.903Z,100.00
2022-09-24T09:27:42.966Z,100.00
2022-09-24T09:28:46.165Z,100.00
2022-09-24T09:29:53.327Z,100.00
2022-09-24T09:31:07.003Z,100.00
2022-09-24T09:32:32.417Z,100.00
2022-09-24T09:33:46.250Z,100.00
2022-09-24T09:34:59.074Z,100.00
2022-09-24T09:36:11.342Z,100.00
2022-09-24T09:37:28.191Z,100.00
2022-09-24T09:38:38.885Z,100.00
2022-09-24T09:39:45.568Z,100.00
2022-09-24T09:40:57.950Z,100.00
2022-09-24T09:42:08.778Z,100.00
2022-09-24T09:43:14.213Z,100.00
2022-09-24T09:44:22.223Z,100.00
2022-09-24T09:45:32.535Z,100.00
2022-09-24T09:46:41.730Z,100.00
2022-09-24T09:47:47.502Z,100.00
2022-09-24T09:48:55.538Z,100.00
2022-09-24T09:50:03.928Z,100.00
2022-09-24T09:51:07.847Z,100.00
2022-09-24T09:52:15.739Z,100.00
2022-09-24T09:53:22.236Z,100.00
2022-09-24T09:54:36.273Z,100.00
2022-09-24T09:55:40.585Z,100.00
2022-09-24T09:56:45.975Z,100.00
2022-09-24T09:57:52.703Z,100.00
2022-09-24T09:59:06.901Z,100.00
2022-09-24T10:00:28.889Z,100.00
2022-09-24T10:01:33.295Z,100.00
2022-09-24T10:02:43.120Z,100.00
2022-09-24T10:03:49.751Z,100.00
2022-09-24T10:04:57.382Z,100.00
2022-09-24T10:06:01.887Z,100.00
2022-09-24T10:07:07.155Z,100.00
2022-09-24T10:08:22.762Z,100.00
2022-09-24T10:09:24.932Z,100.00
2022-09-24T10:10:29.466Z,100.00
2022-09-24T10:11:31.580Z,100.00
2022-09-24T10:12:34.717Z,100.00
2022-09-24T10:13:36.976Z,100.00
2022-09-24T10:14:40.089Z,100.00
2022-09-24T10:15:51.219Z,100.00
2022-09-24T10:16:55.362Z,100.00
2022-09-24T10:18:01.655Z,100.00
2022-09-24T10:19:03.971Z,100.00
2022-09-24T10:20:11.021Z,100.00
2022-09-24T10:21:28.300Z,100.00
2022-09-24T10:22:32.144Z,100.00
2022-09-24T10:23:39.432Z,100.00
2022-09-24T10:24:44.580Z,100.00
2022-09-24T10:25:52.811Z,100.00
2022-09-24T10:26:56.014Z,100.00
2022-09-24T10:28:21.155Z,100.00
2022-09-24T10:29:44.673Z,100.00
2022-09-24T10:30:58.410Z,100.00
2022-09-24T10:32:01.050Z,100.00
2022-09-24T10:33:06.473Z,100.00
2022-09-24T10:34:21.937Z,100.00
2022-09-24T10:35:28.964Z,100.00
2022-09-24T10:36:33.672Z,100.00
2022-09-24T10:37:35.789Z,100.00
2022-09-24T10:38:40.318Z,100.00
2022-09-24T10:39:42.636Z,100.00
2022-09-24T10:40:45.873Z,100.00
2022-09-24T10:41:49.718Z,100.00
2022-09-24T10:43:00.916Z,100.00
2022-09-24T10:44:07.565Z,100.00
2022-09-24T10:45:14.154Z,100.00
2022-09-24T10:46:43.199Z,100.00
2022-09-24T10:47:56.689Z,100.00
2022-09-24T10:49:05.951Z,100.00
2022-09-24T10:50:25.339Z,100.00
2022-09-24T10:51:40.597Z,100.00
2022-09-24T10:52:51.351Z,100.00
2022-09-24T10:54:03.513Z,100.00
2022-09-24T10:55:18.092Z,100.00
2022-09-24T10:56:28.411Z,100.00
2022-09-24T10:57:39.669Z,100.00
2022-09-24T10:59:05.866Z,100.00
2022-09-24T11:00:22.829Z,100.00
2022-09-24T11:01:33.490Z,100.00
2022-09-24T11:02:49.114Z,100.00
2022-09-24T11:04:05.719Z,100.00
2022-09-24T11:05:13.402Z,100.00
2022-09-24T11:06:25.111Z,100.00
2022-09-24T11:07:55.149Z,100.00
2022-09-24T11:09:15.258Z,100.00
2022-09-24T11:10:26.431Z,100.00
2022-09-24T11:11:42.698Z,100.00
2022-09-24T11:12:54.460Z,100.00
2022-09-24T11:14:11.007Z,100.00
2022-09-24T11:15:30.560Z,100.00
2022-09-24T11:16:53.655Z,100.00
2022-09-24T11:18:11.171Z,100.00
2022-09-24T11:19:25.965Z,100.00
2022-09-24T11:20:35.153Z,100.00
2022-09-24T11:21:57.950Z,100.00
2022-09-24T11:23:23.759Z,100.00
2022-09-24T11:24:49.763Z,100.00
2022-09-24T11:26:02.590Z,100.00
2022-09-24T11:27:24.407Z,100.00
2022-09-24T11:28:45.689Z,100.00
2022-09-24T11:30:09.668Z,100.00
2022-09-24T11:31:23.477Z,100.00
2022-09-24T11:32:33.783Z,100.00
2022-09-24T11:33:57.825Z,100.00
2022-09-24T11:35:19.731Z,100.00
2022-09-24T11:36:39.628Z,100.00
2022-09-24T11:37:56.774Z,100.00
2022-09-24T11:39:22.233Z,100.00
2022-09-24T11:40:48.912Z,100.00
2022-09-24T11:42:01.221Z,100.00
2022-09-24T11:43:21.493Z,100.00
2022-09-24T11:44:57.865Z,100.00
2022-09-24T11:46:17.543Z,100.00
2022-09-24T11:47:37.149Z,100.00
2022-09-24T11:49:17.114Z,100.00
2022-09-24T11:50:31.139Z,100.00
2022-09-24T11:51:48.792Z,100.00
2022-09-24T11:52:54.418Z,100.00
2022-09-24T11:54:03.957Z,100.00
2022-09-24T11:55:15.805Z,100.00
2022-09-24T11:56:23.915Z,100.00
2022-09-24T11:57:28.797Z,100.00
2022-09-24T11:58:36.595Z,100.00
2022-09-24T11:59:46.661Z,100.00
2022-09-24T12:00:55.789Z,100.00
2022-09-24T12:02:05.775Z,100.00
2022-09-24T12:03:15.615Z,100.00
2022-09-24T12:04:27.544Z,100.00
2022-09-24T12:05:34.803Z,100.00
2022-09-24T12:06:42.249Z,100.00
2022-09-24T12:07:50.118Z,100.00
2022-09-24T12:08:57.947Z,100.00
2022-09-24T12:10:06.232Z,100.00
2022-09-24T12:11:14.072Z,100.00
2022-09-24T12:12:22.927Z,100.00
2022-09-24T12:13:30.101Z,100.00
2022-09-24T12:14:44.469Z,100.00
2022-09-24T12:15:51.728Z,100.00
2022-09-24T12:17:00.140Z,100.00
2022-09-24T12:18:08.168Z,100.00
2022-09-24T12:19:17.931Z,100.00
2022-09-24T12:20:28.478Z,100.00
2022-09-24T12:21:35.119Z,100.00
2022-09-24T12:22:39.634Z,100.00
2022-09-24T12:23:45.721Z,100.00
2022-09-24T12:24:51.864Z,100.00
2022-09-24T12:25:56.782Z,100.00
2022-09-24T12:27:02.559Z,100.00
2022-09-24T12:28:10.988Z,100.00
2022-09-24T12:29:56.754Z,100.00
2022-09-24T12:31:20.613Z,100.00
2022-09-24T12:32:49.040Z,100.00
2022-09-24T12:33:56.155Z,100.00
2022-09-24T12:35:09.161Z,100.00
2022-09-24T12:36:18.936Z,100.00
2022-09-24T12:37:28.773Z,100.00
2022-09-24T12:38:36.756Z,100.00
2022-09-24T12:39:49.225Z,100.00
2022-09-24T12:41:09.889Z,100.00
2022-09-24T12:42:14.622Z,100.00
2022-09-24T12:43:25.232Z,100.00
2022-09-24T12:44:39.831Z,100.00
2022-09-24T12:45:43.091Z,100.00
2022-09-24T12:46:50.501Z,100.00
2022-09-24T12:47:56.191Z,100.00
2022-09-24T12:49:00.238Z,100.00
2022-09-24T12:50:05.115Z,100.00
2022-09-24T12:51:10.458Z,100.00
2022-09-24T12:52:18.450Z,100.00
2022-09-24T12:53:25.380Z,100.00
2022-09-24T12:54:30.380Z,100.00
2022-09-24T12:55:36.343Z,100.00
2022-09-24T12:56:38.528Z,100.00
2022-09-24T12:57:50.235Z,100.00
2022-09-24T12:58:54.407Z,100.00
2022-09-24T12:59:59.178Z,100.00
2022-09-24T13:01:13.325Z,100.00
2022-09-24T13:02:19.164Z,100.00
2022-09-24T13:03:42.000Z,100.00
2022-09-24T13:05:17.545Z,100.00
2022-09-24T13:06:30.497Z,100.00
2022-09-24T13:07:36.778Z,100.00
2022-09-24T13:08:41.956Z,100.00
2022-09-24T13:09:44.394Z,100.00
2022-09-24T13:10:56.055Z,100.00
2022-09-24T13:12:04.518Z,100.00
2022-09-24T13:13:25.707Z,100.00
2022-09-24T13:14:32.445Z,100.00
2022-09-24T13:15:38.217Z,100.00
2022-09-24T13:16:42.958Z,100.00
2022-09-24T13:17:47.617Z,100.00
2022-09-24T13:18:54.618Z,100.00
2022-09-24T13:19:59.799Z,100.00
2022-09-24T13:21:07.731Z,100.00
2022-09-24T13:22:23.182Z,100.00
2022-09-24T13:23:44.153Z,100.00
2022-09-24T13:24:47.400Z,100.00
2022-09-24T13:25:57.031Z,100.00
2022-09-24T13:27:22.910Z,100.00
2022-09-24T13:28:38.416Z,100.00
2022-09-24T13:29:44.596Z,100.00
2022-09-24T13:30:51.919Z,100.00
2022-09-24T13:32:01.019Z,100.00
2022-09-24T13:33:10.982Z,100.00
2022-09-24T13:34:20.048Z,100.00
2022-09-24T13:35:29.345Z,100.00
2022-09-24T13:36:38.945Z,100.00
2022-09-24T13:37:48.504Z,100.00
2022-09-24T13:38:57.490Z,100.00
2022-09-24T13:40:06.411Z,100.00
2022-09-24T13:41:26.423Z,100.00
2022-09-24T13:42:34.034Z,100.00
2022-09-24T13:43:45.008Z,100.00
2022-09-24T13:44:52.663Z,100.00
2022-09-24T13:45:55.853Z,100.00
2022-09-24T13:47:02.742Z,100.00
2022-09-24T13:48:16.481Z,100.00
2022-09-24T13:49:21.675Z,100.00
2022-09-24T13:50:28.902Z,100.00
2022-09-24T13:51:36.686Z,100.00
2022-09-24T13:52:45.250Z,100.00
2022-09-24T13:53:52.773Z,100.00
2022-09-24T13:55:02.932Z,100.00
2022-09-24T13:56:12.735Z,100.00
2022-09-24T13:57:23.091Z,100.00
2022-09-24T13:58:28.617Z,100.00
2022-09-24T13:59:33.606Z,100.00
2022-09-24T14:00:43.590Z,100.00
2022-09-24T14:01:47.405Z,100.00
2022-09-24T14:02:57.475Z,100.00
2022-09-24T14:04:03.491Z,100.00
2022-09-24T14:05:16.440Z,100.00